AXCGGARGarmin  id=247  GPS 72 Software Version 2.50|2140330771
HFDTE160910
HFPLTPilot:UNREGISTERED
HFTZOTimezone:2
HFSITSite:
HPGTYGliderType:
HPGIDGliderID:
HFDTM100DATUM:WGS-1984
HFCIDCOMPETITIONID:
HFCCLCOMPETITIONCLASS:
LXCG     ICON:C:\Program Files\CompeGPS\symbols\IconsPlay\cronos.ico
LXCG     COLOR:000119000
I00
B1517523735182N00104431WA0000000013
B1517593735198N00104403WA0000000013
B1518053735215N00104385WA0000000095
B1518113735218N00104395WA0000000106
B1518173735222N00104422WA0000000109
B1518233735223N00104446WA0000000110
B1518293735236N00104475WA0000000110
B1518353735243N00104500WA0000000111
B1518413735242N00104486WA0000000114
B1518473735247N00104463WA0000000122
B1518533735244N00104448WA0000000129
B1518593735240N00104435WA0000000137
B1519053735236N00104432WA0000000141
B1519113735233N00104419WA0000000147
B1519173735230N00104406WA0000000150
B1519233735226N00104410WA0000000150
B1519293735234N00104435WA0000000152
B1519353735243N00104462WA0000000152
B1519413735244N00104483WA0000000154
B1519473735238N00104488WA0000000155
B1519533735228N00104484WA0000000153
B1519593735218N00104476WA0000000156
B1520053735206N00104468WA0000000154
B1520113735195N00104469WA0000000156
B1520173735186N00104469WA0000000157
B1520233735175N00104466WA0000000154
B1520293735165N00104459WA0000000157
B1520353735155N00104452WA0000000154
B1520413735145N00104449WA0000000153
B1520473735135N00104453WA0000000152
B1520533735128N00104460WA0000000152
B1520593735121N00104468WA0000000149
B1521053735113N00104477WA0000000152
B1521113735106N00104481WA0000000152
B1521173735098N00104488WA0000000153
B1521233735092N00104492WA0000000152
B1521293735084N00104499WA0000000147
B1521353735077N00104508WA0000000145
B1521413735072N00104514WA0000000141
B1521473735066N00104525WA0000000140
B1521533735059N00104535WA0000000134
B1521593735053N00104543WA0000000131
B1522053735048N00104557WA0000000130
B1522113735041N00104567WA0000000130
B1522173735036N00104583WA0000000130
B1522233735034N00104598WA0000000131
B1522293735033N00104613WA0000000135
B1522353735036N00104627WA0000000140
B1522413735039N00104640WA0000000143
B1522473735043N00104656WA0000000148
B1522533735045N00104671WA0000000155
B1522593735047N00104684WA0000000160
B1523053735042N00104677WA0000000164
B1523113735039N00104656WA0000000169
B1523173735039N00104663WA0000000171
B1523233735056N00104685WA0000000176
B1523293735056N00104699WA0000000178
B1523353735052N00104708WA0000000180
B1523413735045N00104709WA0000000179
B1523473735043N00104692WA0000000186
B1523533735036N00104688WA0000000186
B1523593735032N00104697WA0000000191
B1524053735025N00104702WA0000000194
B1524113735022N00104717WA0000000197
B1524173735022N00104733WA0000000199
B1524233735027N00104753WA0000000202
B1524293735036N00104775WA0000000201
B1524353735039N00104795WA0000000202
B1524413735046N00104816WA0000000199
B1524473735054N00104836WA0000000199
B1524533735046N00104842WA0000000200
B1524593735044N00104814WA0000000202
B1525053735041N00104781WA0000000197
B1525113735034N00104752WA0000000201
B1525173735028N00104740WA0000000198
B1525233735023N00104743WA0000000196
B1525293735016N00104724WA0000000193
B1525353735039N00104692WA0000000192
B1525413735061N00104660WA0000000192
B1525473735054N00104643WA0000000188
B1525533735063N00104660WA0000000182
B1525593735069N00104678WA0000000180
B1526053735062N00104682WA0000000184
B1526113735056N00104681WA0000000184
B1526173735050N00104680WA0000000185
B1526233735042N00104683WA0000000190
B1526293735035N00104682WA0000000189
B1526353735026N00104682WA0000000187
B1526413735021N00104688WA0000000183
B1526473735011N00104663WA0000000179
B1526533735010N00104629WA0000000177
B1526593735005N00104594WA0000000171
B1527053735001N00104556WA0000000164
B1527113735004N00104515WA0000000158
B1527173735009N00104474WA0000000151
B1527233735018N00104433WA0000000144
B1527293735031N00104391WA0000000143
B1527353735042N00104357WA0000000146
B1527413735037N00104339WA0000000151
B1527473735053N00104354WA0000000153
B1527533735056N00104368WA0000000152
B1527593735049N00104344WA0000000150
B1528053735046N00104315WA0000000155
B1528113735039N00104300WA0000000154
B1528173735032N00104292WA0000000157
B1528233735026N00104291WA0000000156
B1528293735030N00104305WA0000000155
B1528353735027N00104311WA0000000156
B1528413735018N00104301WA0000000159
B1528473735009N00104285WA0000000157
B1528533735002N00104273WA0000000158
B1528593734997N00104265WA0000000162
B1529053734990N00104254WA0000000159
B1529113734982N00104244WA0000000156
B1529173734975N00104236WA0000000153
B1529233734968N00104223WA0000000151
B1529293734961N00104210WA0000000147
B1529353734954N00104197WA0000000142
B1529413734946N00104183WA0000000138
B1529473734936N00104169WA0000000132
B1529533734926N00104156WA0000000125
B1529593734917N00104138WA0000000122
B1530053734908N00104123WA0000000119
B1530113734899N00104108WA0000000116
B1530173734891N00104091WA0000000112
B1530233734883N00104076WA0000000111
B1530293734875N00104062WA0000000107
B1530353734869N00104048WA0000000101
B1530413734862N00104032WA0000000098
B1530473734858N00104047WA0000000095
B1530533734875N00104079WA0000000093
B1530593734898N00104110WA0000000094
B1531053734917N00104140WA0000000093
B1531113734934N00104171WA0000000093
B1531173734958N00104196WA0000000091
B1531233734985N00104218WA0000000087
B1531293735014N00104237WA0000000084
B1531353735039N00104259WA0000000086
B1531413735056N00104283WA0000000090
B1531473735059N00104296WA0000000093
B1531533735054N00104291WA0000000098
B1531593735059N00104305WA0000000102
B1532053735073N00104326WA0000000105
B1532113735098N00104350WA0000000105
B1532173735127N00104374WA0000000105
B1532233735157N00104392WA0000000103
B1532293735193N00104403WA0000000104
B1532353735225N00104418WA0000000104
B1532413735235N00104439WA0000000108
B1532473735237N00104458WA0000000113
B1532533735245N00104483WA0000000117
B1532593735259N00104510WA0000000125
B1533053735260N00104525WA0000000129
B1533113735255N00104508WA0000000130
B1533173735250N00104485WA0000000134
B1533233735245N00104463WA0000000137
B1533293735238N00104450WA0000000139
B1533353735230N00104447WA0000000137
B1533413735228N00104461WA0000000138
B1533473735220N00104469WA0000000139
B1533533735212N00104461WA0000000144
B1533593735204N00104455WA0000000148
B1534053735191N00104453WA0000000152
B1534113735181N00104447WA0000000147
B1534173735193N00104469WA0000000143
B1534233735226N00104457WA0000000140
B1534293735228N00104431WA0000000143
B1534353735220N00104428WA0000000146
B1534413735216N00104437WA0000000148
B1534473735224N00104460WA0000000148
B1534533735232N00104486WA0000000152
B1534593735227N00104501WA0000000154
B1535053735215N00104498WA0000000156
B1535113735207N00104483WA0000000158
B1535173735196N00104471WA0000000157
B1535233735184N00104475WA0000000152
B1535293735172N00104477WA0000000147
B1535353735162N00104481WA0000000142
B1535413735153N00104482WA0000000140
B1535473735145N00104483WA0000000137
B1535533735135N00104489WA0000000133
B1535593735127N00104494WA0000000129
B1536053735121N00104500WA0000000123
B1536113735115N00104506WA0000000118
B1536173735109N00104490WA0000000113
B1536233735137N00104460WA0000000112
B1536293735175N00104446WA0000000109
B1536353735202N00104467WA0000000113
B1536413735209N00104490WA0000000115
B1536473735206N00104470WA0000000116
B1536533735226N00104436WA0000000118
B1536593735227N00104409WA0000000122
B1537053735223N00104422WA0000000126
B1537113735232N00104448WA0000000130
B1537173735241N00104471WA0000000135
B1537233735249N00104492WA0000000139
B1537293735250N00104503WA0000000140
B1537353735245N00104493WA0000000141
B1537413735237N00104487WA0000000145
B1537473735231N00104481WA0000000148
B1537533735223N00104477WA0000000151
B1537593735217N00104480WA0000000151
B1538053735224N00104504WA0000000150
B1538113735217N00104504WA0000000148
B1538173735229N00104471WA0000000150
B1538233735227N00104451WA0000000152
B1538293735221N00104436WA0000000156
B1538353735213N00104423WA0000000161
B1538413735206N00104404WA0000000169
B1538473735200N00104394WA0000000170
B1538533735194N00104395WA0000000174
B1538593735186N00104393WA0000000174
B1539053735176N00104385WA0000000173
B1539113735167N00104371WA0000000174
B1539173735156N00104358WA0000000170
B1539233735145N00104349WA0000000166
B1539293735134N00104345WA0000000162
B1539353735126N00104342WA0000000157
B1539413735117N00104343WA0000000153
B1539473735106N00104337WA0000000156
B1539533735099N00104331WA0000000156
B1539593735094N00104330WA0000000157
B1540053735090N00104332WA0000000158
B1540113735086N00104334WA0000000157
B1540173735082N00104329WA0000000157
B1540233735076N00104319WA0000000157
B1540293735071N00104307WA0000000158
B1540353735064N00104295WA0000000153
B1540413735056N00104289WA0000000157
B1540473735052N00104284WA0000000163
B1540533735050N00104284WA0000000167
B1540593735045N00104273WA0000000170
B1541053735041N00104262WA0000000170
B1541113735036N00104254WA0000000171
B1541173735036N00104250WA0000000174
B1541233735034N00104240WA0000000177
B1541293735031N00104230WA0000000179
B1541353735028N00104223WA0000000179
B1541413735022N00104211WA0000000182
B1541473735018N00104204WA0000000186
B1541533735014N00104189WA0000000188
B1541593735011N00104182WA0000000189
B1542053735006N00104175WA0000000188
B1542113734999N00104165WA0000000188
B1542173734992N00104153WA0000000185
B1542233734985N00104142WA0000000183
B1542293734978N00104129WA0000000180
B1542353734970N00104120WA0000000179
B1542413734962N00104108WA0000000176
B1542473734954N00104098WA0000000173
B1542533734947N00104089WA0000000172
B1542593734942N00104077WA0000000173
B1543053734935N00104063WA0000000171
B1543113734928N00104052WA0000000173
B1543173734924N00104039WA0000000177
B1543233734921N00104022WA0000000179
B1543293734918N00104012WA0000000180
B1543353734914N00104006WA0000000182
B1543413734909N00103998WA0000000182
B1543473734906N00103989WA0000000182
B1543533734904N00103978WA0000000184
B1543593734902N00103966WA0000000185
B1544053734900N00103949WA0000000188
B1544113734899N00103920WA0000000192
B1544173734907N00103878WA0000000198
B1544233734927N00103832WA0000000204
B1544293734946N00103787WA0000000210
B1544353734963N00103744WA0000000215
B1544413734983N00103701WA0000000221
B1544473734999N00103660WA0000000221
B1544533734999N00103622WA0000000218
B1544593734991N00103622WA0000000216
B1545053734990N00103632WA0000000217
B1545113734985N00103640WA0000000216
B1545173734979N00103648WA0000000215
B1545233734975N00103657WA0000000216
B1545293734969N00103660WA0000000216
B1545353734963N00103670WA0000000214
B1545413734961N00103679WA0000000217
B1545473734957N00103687WA0000000225
B1545533734955N00103700WA0000000227
B1545593734954N00103712WA0000000229
B1546053734953N00103720WA0000000232
B1546113734954N00103731WA0000000233
B1546173734950N00103742WA0000000241
B1546233734946N00103750WA0000000248
B1546293734942N00103751WA0000000256
B1546353734939N00103752WA0000000262
B1546413734932N00103750WA0000000268
B1546473734929N00103752WA0000000277
B1546533734924N00103753WA0000000286
B1546593734923N00103755WA0000000290
B1547053734926N00103759WA0000000293
B1547113734936N00103766WA0000000300
B1547173734937N00103769WA0000000307
B1547233734936N00103769WA0000000311
B1547293734942N00103775WA0000000314
B1547353734942N00103779WA0000000314
B1547413734937N00103749WA0000000314
B1547473734962N00103705WA0000000315
B1547533734996N00103699WA0000000318
B1547593735013N00103709WA0000000319
B1548053735007N00103703WA0000000321
B1548113735010N00103710WA0000000324
B1548173735017N00103723WA0000000327
B1548233735007N00103715WA0000000329
B1548293735007N00103721WA0000000331
B1548353735020N00103734WA0000000329
B1548413735011N00103731WA0000000327
B1548473735015N00103690WA0000000323
B1548533735050N00103661WA0000000327
B1548593735085N00103637WA0000000329
B1549053735112N00103602WA0000000334
B1549113735120N00103569WA0000000339
B1549173735105N00103560WA0000000340
B1549233735092N00103561WA0000000350
B1549293735079N00103557WA0000000353
B1549353735068N00103563WA0000000354
B1549413735064N00103577WA0000000351
B1549473735063N00103592WA0000000347
B1549533735056N00103603WA0000000347
B1549593735048N00103612WA0000000349
B1550053735045N00103629WA0000000351
B1550113735057N00103649WA0000000354
B1550173735072N00103667WA0000000354
B1550233735092N00103684WA0000000356
B1550293735087N00103686WA0000000357
B1550353735082N00103691WA0000000361
B1550413735078N00103696WA0000000363
B1550473735069N00103692WA0000000365
B1550533735069N00103701WA0000000364
B1550593735092N00103714WA0000000367
B1551053735123N00103720WA0000000366
B1551113735158N00103719WA0000000363
B1551173735196N00103713WA0000000365
B1551233735233N00103715WA0000000368
B1551293735258N00103733WA0000000371
B1551353735251N00103734WA0000000374
B1551413735240N00103716WA0000000375
B1551473735231N00103696WA0000000376
B1551533735222N00103699WA0000000376
B1551593735211N00103702WA0000000376
B1552053735199N00103701WA0000000375
B1552113735189N00103700WA0000000376
B1552173735180N00103706WA0000000373
B1552233735166N00103709WA0000000368
B1552293735152N00103708WA0000000367
B1552353735140N00103705WA0000000366
B1552413735131N00103703WA0000000368
B1552473735120N00103696WA0000000370
B1552533735110N00103694WA0000000371
B1552593735102N00103694WA0000000375
B1553053735101N00103704WA0000000376
B1553113735108N00103720WA0000000375
B1553173735111N00103735WA0000000374
B1553233735105N00103737WA0000000375
B1553293735096N00103737WA0000000375
B1553353735090N00103746WA0000000378
B1553413735080N00103752WA0000000378
B1553473735071N00103758WA0000000377
B1553533735061N00103762WA0000000379
B1553593735052N00103768WA0000000377
B1554053735040N00103769WA0000000376
B1554113735030N00103773WA0000000379
B1554173735022N00103778WA0000000381
B1554233735012N00103774WA0000000381
B1554293735006N00103777WA0000000379
B1554353735025N00103797WA0000000379
B1554413735062N00103784WA0000000378
B1554473735076N00103745WA0000000379
B1554533735070N00103730WA0000000380
B1554593735066N00103736WA0000000382
B1555053735057N00103738WA0000000385
B1555113735048N00103732WA0000000389
B1555173735043N00103733WA0000000389
B1555233735055N00103753WA0000000391
B1555293735081N00103772WA0000000388
B1555353735122N00103767WA0000000388
B1555413735150N00103735WA0000000391
B1555473735170N00103699WA0000000391
B1555533735189N00103660WA0000000396
B1555593735186N00103638WA0000000399
B1556053735196N00103657WA0000000397
B1556113735225N00103679WA0000000398
B1556173735236N00103698WA0000000401
B1556233735229N00103695WA0000000402
B1556293735223N00103690WA0000000403
B1556353735218N00103692WA0000000405
B1556413735216N00103690WA0000000410
B1556473735211N00103689WA0000000413
B1556533735204N00103691WA0000000413
B1556593735199N00103695WA0000000416
B1557053735196N00103697WA0000000413
B1557113735191N00103702WA0000000410
B1557173735182N00103703WA0000000410
B1557233735173N00103701WA0000000414
B1557293735166N00103700WA0000000417
B1557353735157N00103701WA0000000417
B1557413735149N00103701WA0000000421
B1557473735139N00103698WA0000000419
B1557533735127N00103698WA0000000418
B1557593735117N00103699WA0000000421
B1558053735110N00103701WA0000000424
B1558113735102N00103702WA0000000426
B1558173735093N00103702WA0000000427
B1558233735087N00103706WA0000000428
B1558293735080N00103709WA0000000431
B1558353735074N00103711WA0000000431
B1558413735066N00103718WA0000000427
B1558473735059N00103725WA0000000428
B1558533735053N00103730WA0000000429
B1558593735046N00103738WA0000000435
B1559053735039N00103740WA0000000437
B1559113735028N00103745WA0000000439
B1559173735017N00103749WA0000000444
B1559233735003N00103754WA0000000447
B1559293734992N00103762WA0000000450
B1559353734982N00103770WA0000000447
B1559413734972N00103784WA0000000444
B1559473734969N00103804WA0000000440
B1559533734970N00103827WA0000000437
B1559593734964N00103846WA0000000433
B1600053734951N00103857WA0000000429
B1600113734938N00103862WA0000000426
B1600173734926N00103868WA0000000422
B1600233734914N00103873WA0000000419
B1600293734905N00103879WA0000000415
B1600353734901N00103891WA0000000412
B1600413734894N00103904WA0000000412
B1600473734886N00103917WA0000000413
B1600533734884N00103930WA0000000408
B1600593734896N00103946WA0000000407
B1601053734920N00103958WA0000000403
B1601113734950N00103964WA0000000403
B1601173734975N00103978WA0000000401
B1601233735004N00103984WA0000000398
B1601293735037N00103973WA0000000394
B1601353735064N00103951WA0000000388
B1601413735075N00103913WA0000000383
B1601473735078N00103872WA0000000382
B1601533735077N00103832WA0000000382
B1601593735088N00103786WA0000000384
B1602053735102N00103744WA0000000385
B1602113735116N00103701WA0000000388
B1602173735123N00103659WA0000000393
B1602233735142N00103617WA0000000400
B1602293735155N00103575WA0000000398
B1602353735139N00103565WA0000000399
B1602413735132N00103564WA0000000401
B1602473735130N00103577WA0000000400
B1602533735135N00103595WA0000000401
B1602593735133N00103611WA0000000413
B1603053735132N00103626WA0000000415
B1603113735131N00103643WA0000000416
B1603173735129N00103653WA0000000417
B1603233735123N00103654WA0000000418
B1603293735115N00103655WA0000000420
B1603353735107N00103657WA0000000421
B1603413735104N00103666WA0000000422
B1603473735110N00103683WA0000000423
B1603533735107N00103695WA0000000426
B1603593735101N00103699WA0000000430
B1604053735097N00103706WA0000000434
B1604113735088N00103708WA0000000436
B1604173735080N00103716WA0000000439
B1604233735074N00103726WA0000000440
B1604293735066N00103737WA0000000436
B1604353735055N00103748WA0000000435
B1604413735046N00103761WA0000000434
B1604473735037N00103766WA0000000433
B1604533735026N00103767WA0000000427
B1604593735023N00103777WA0000000428
B1605053735023N00103789WA0000000429
B1605113735022N00103804WA0000000430
B1605173735019N00103816WA0000000430
B1605233735013N00103829WA0000000426
B1605293735004N00103843WA0000000425
B1605353734993N00103849WA0000000425
B1605413734982N00103853WA0000000426
B1605473734969N00103851WA0000000427
B1605533734960N00103857WA0000000426
B1605593734959N00103871WA0000000424
B1606053734965N00103889WA0000000419
B1606113734971N00103907WA0000000415
B1606173734973N00103921WA0000000415
B1606233734973N00103935WA0000000414
B1606293734968N00103945WA0000000410
B1606353734961N00103948WA0000000406
B1606413734955N00103953WA0000000402
B1606473734959N00103971WA0000000399
B1606533734963N00103986WA0000000395
B1606593734961N00103998WA0000000393
B1607053734960N00104009WA0000000392
B1607113734958N00104017WA0000000391
B1607173734958N00104029WA0000000386
B1607233734961N00104044WA0000000381
B1607293734957N00104054WA0000000376
B1607353734956N00104070WA0000000370
B1607413734962N00104087WA0000000366
B1607473734982N00104105WA0000000362
B1607533734999N00104119WA0000000361
B1607593735009N00104136WA0000000361
B1608053735017N00104153WA0000000362
B1608113735013N00104167WA0000000361
B1608173735015N00104182WA0000000357
B1608233735042N00104190WA0000000353
B1608293735075N00104188WA0000000351
B1608353735104N00104195WA0000000346
B1608413735117N00104218WA0000000342
B1608473735121N00104241WA0000000342
B1608533735120N00104267WA0000000342
B1608593735110N00104286WA0000000328
B1609053735090N00104286WA0000000318
B1609113735073N00104263WA0000000313
B1609173735062N00104237WA0000000312
B1609233735050N00104205WA0000000309
B1609293735028N00104180WA0000000313
B1609353735007N00104168WA0000000308
B1609413734993N00104168WA0000000300
B1609473734982N00104169WA0000000290
B1609533734974N00104176WA0000000284
B1609593734963N00104176WA0000000276
B1610053734950N00104172WA0000000266
B1610113734937N00104171WA0000000252
B1610173734925N00104171WA0000000245
B1610233734918N00104177WA0000000238
B1610293734911N00104181WA0000000233
B1610353734898N00104180WA0000000225
B1610413734885N00104174WA0000000220
B1610473734873N00104172WA0000000213
B1610533734863N00104178WA0000000200
B1610593734857N00104190WA0000000185
B1611053734866N00104210WA0000000171
B1611113734902N00104217WA0000000162
B1611173734943N00104198WA0000000152
B1611233734981N00104182WA0000000144
B1611293735009N00104187WA0000000140
B1611353735029N00104200WA0000000138
B1611413735038N00104210WA0000000137
B1611473735033N00104204WA0000000137
B1611533735033N00104210WA0000000136
B1611593735033N00104217WA0000000136
B1612053735034N00104224WA0000000139
B1612113735045N00104238WA0000000139
B1612173735048N00104252WA0000000139
B1612233735042N00104257WA0000000135
B1612293735035N00104252WA0000000137
B1612353735030N00104251WA0000000139
B1612413735025N00104257WA0000000143
B1612473735021N00104266WA0000000144
B1612533735019N00104287WA0000000140
B1612593735035N00104315WA0000000138
B1613053735059N00104334WA0000000136
B1613113735088N00104352WA0000000127
B1613173735114N00104371WA0000000123
B1613233735117N00104385WA0000000117
B1613293735121N00104396WA0000000114
B1613353735123N00104406WA0000000104
B1613413735124N00104411WA0000000095
B1613473735117N00104410WA0000000087
B1613533735112N00104420WA0000000076
B1613593735110N00104431WA0000000070
B1614053735104N00104417WA0000000066
B1614113735102N00104412WA0000000065
B1614173735097N00104411WA0000000067
B1614233735101N00104426WA0000000069
B1614293735104N00104435WA0000000061
B1614353735103N00104439WA0000000058
B1614413735098N00104413WA0000000056
B1614473735095N00104405WA0000000050
B1614533735093N00104411WA0000000047
B1614593735090N00104417WA0000000040
B1615053735080N00104407WA0000000031
B1615113735071N00104394WA0000000027
B1615173735063N00104384WA0000000023
B1615233735058N00104379WA0000000021
B1615293735060N00104389WA0000000019
B1615353735059N00104391WA0000000015
B1615413735061N00104400WA0000000012
B1615473735059N00104407WA0000000005
B1615533735059N00104406WA0000000009
B1615593735059N00104404WA0000000011
B1616053735059N00104404WA0000000011
B1616113735058N00104402WA0000000015
B1616173735059N00104403WA0000000014
B1616233735059N00104404WA0000000013
B1616293735059N00104403WA0000000014
B1616353735059N00104404WA0000000013
B1616413735060N00104403WA0000000015
B1616473735060N00104402WA0000000015
B1616533735060N00104404WA0000000014
B1616593735060N00104403WA0000000016
B1617053735059N00104404WA0000000010
B1617113735061N00104404WA0000000010
B1617173735061N00104404WA0000000012
B1617233735061N00104404WA0000000015
B1617293735062N00104404WA0000000015
B1617353735067N00104369WA0000000166
B1617413735062N00104400WA0000000042
LXCG     VERSION:5.7
GAA23DE9586BCA6006A63C3FDB45217EA8B36A2E361919D38EE9077B371A699D2B3252
GAA1FDB9925202771630EC4FAE305711B2CCDF087104283E2EF928BCE587B03C3980
G655A5C3DD4AF521471C7F843DB1D50F8305A0333332144FAD667AFE82468C99DF35
G5575A71569F77A59048691B3B19B9C87B733EFE8C2DE1FEB46DF2DDB32599